Bothwell, Utah
Current Conditions -  °F | °C
As of 5:15 PM on Friday 28 Nov 2014 (Local Time) from KBMC Reporting Station
Clear Clear  
Wind Chill: 55°   Ceiling: Unl
Heat Index: 55°   Visibility: 10mi
Dew Point: 25°   Wind: 0mph
Humidity: 30%   Direction: NA
Pressure: 29.83"   Gusts: NA
Location:  41.6836°N, 112.26°W
Report Text: KBMC 290015Z AUTO 00000KT 10SM CLR 13/M04 A2983 RMK AO1 T01301041
Loading
Personal Weather Stations






























Interactive Weather Map New forecast layout! Learn more

10-Day Weather Forecast

Advertisements
Track Severe Weather on mobile